Terminal Aerodrome Forecast
Issued by NWS

Home | Current Version | Previous Version | Text Only | Print | Product List | Glossary On
Versions: 1 2 3 4 5 6 7 8 9 10 11 12 13 14
000
FTUS46 KSEW 052300
TAFOLM
TAF
KOLM 052320Z 0600/0624 25008KT P6SM -SHRA SCT030 BKN050
     FM060400 25005KT P6SM SCT030 SCT050
     FM060700 VRB05KT P6SM BKN025 BKN050
     FM061900 01007KT P6SM VCSH SCT025 BKN050 PROB30 0620/0624 -TSRA
      SCT025 BKN050CB=

USA.gov is the U.S. government's official web portal to all federal, state and local government web resources and services.